Flight Track Log - Related Links

Times and Time Zones

All times are in EDT time to prevent confusion due to time zone crossing. See the NJE5AN flight status page for this flight to view local times or setup timezone preferences in your user account.

Time Position Orientation Groundspeed Altitude Reporting Facility
EDT Latitude Longitude Course Direction KTS MPH feet Rate Location/Type
Mon 02:35:44 PM 23.4858 -75.7869 318° Northwest 203 234 5,300  Level Miami Center
Mon 02:36:46 PM 23.4461 -75.8472 234° Southwest 215 247 6,900 823 Climbing Miami Center
Mon 02:37:48 PM 23.3942 -75.8800 210° Southwest 216 249 7,000 1,016 Climbing Miami Center
Mon 02:38:50 PM 23.3689 -75.9458 247° West 235 270 9,000 2,032 Climbing Miami Center
Mon 02:39:52 PM 23.3442 -76.0308 252° West 284 327 11,200 2,371 Climbing Miami Center
Mon 02:40:54 PM 23.3197 -76.1336 255° West 349 402 13,900 2,758 Climbing Miami Center
Mon 02:41:00 PM 24.0287 -76.3786 318° Northwest  Level FlightAware
Mon 02:41:56 PM 23.3092 -76.2514 264° West 386 444 16,900  Level Miami Center
Mon 02:42:58 PM 23.3147 -76.3967 272° West 395 455 20,300 2,371 Climbing Miami Center
Mon 02:44:00 PM 23.3225 -76.5183 274° West 402 463 21,800 1,113 Climbing Miami Center
Mon 02:45:02 PM 23.3344 -76.6344 276° West 392 451 22,600 919 Climbing Miami Center
Mon 02:46:04 PM 23.3733 -76.7469 291° West 398 458 23,700 1,597 Climbing Miami Center
Mon 02:47:06 PM 23.4281 -76.8544 299° West 406 467 25,900 2,226 Climbing Miami Center
Mon 02:48:08 PM 23.5275 -76.9233 328° Northwest 421 484 28,300 2,226 Climbing Miami Center
Mon 02:49:10 PM 23.6308 -76.9869 331° Northwest 420 483 30,500 1,984 Climbing Miami Center
Mon 02:50:12 PM 23.7597 -77.0617 332° Northwest 432 497 32,400 1,403 Climbing Miami Center
Mon 02:51:14 PM 23.8722 -77.1347 329° Northwest 464 534 33,400 1,210 Climbing Miami Center
Mon 02:52:16 PM 23.9906 -77.2153 328° Northwest 473 544 34,900 1,415 Climbing Miami Center
Mon 02:53:17 PM 24.0981 -77.2967 325° Northwest 472 543 36,300 1,366 Climbing Miami Center
Mon 02:54:19 PM 24.2044 -77.3764 326° Northwest 465 535 37,700 1,403 Climbing Miami Center
Mon 02:55:21 PM 24.3192 -77.4692 324° Northwest 465 535 39,200 1,403 Climbing Miami Center
Mon 02:56:23 PM 24.4256 -77.5481 326° Northwest 464 534 40,600 1,403 Climbing Miami Center
Mon 02:57:25 PM 24.5386 -77.6147 332° Northwest 459 528 42,100 1,161 Climbing Miami Center
Mon 02:58:27 PM 24.6553 -77.6667 338° Northwest 455 524 43,000 581 Climbing Miami Center
Mon 02:59:29 PM 24.7856 -77.7222 339° North 453 521 43,300 532 Climbing Miami Center
Mon 03:00:31 PM 24.9036 -77.7744 338° Northwest 455 524 44,100 780 Climbing Miami Center
Mon 03:01:32 PM 25.0136 -77.8436 330° Northwest 452 520 44,900 439 Climbing Miami Center
Mon 03:02:34 PM 25.1142 -77.9267 323° Northwest 451 519 45,000 48 Climbing Miami Center
Mon 03:03:36 PM 25.2172 -78.0267 319° Northwest 445 512 45,000  Level Miami Center
Mon 03:04:38 PM 25.3153 -78.1131 321° Northwest 451 519 45,000  Level Miami Center
Mon 03:05:40 PM 25.4217 -78.1911 326° Northwest 456 525 45,000  Level Miami Center
Mon 03:06:42 PM 25.5358 -78.2744 327° Northwest 453 521 45,000  Level Miami Center
Mon 03:07:44 PM 25.6419 -78.3511 327° Northwest 454 522 45,000  Level Miami Center
Mon 03:08:46 PM 25.7503 -78.4275 328° Northwest 458 527 45,000  Level Miami Center
Mon 03:09:47 PM 25.8547 -78.5047 326° Northwest 456 525 45,000  Level Miami Center
Mon 03:10:49 PM 25.9706 -78.5903 326° Northwest 455 524 45,000  Level Miami Center
Mon 03:11:51 PM 26.0667 -78.6606 327° Northwest 455 524 45,000  Level Miami Center
Mon 03:12:53 PM 26.1725 -78.7369 327° Northwest 455 524 45,000  Level Miami Center
Mon 03:13:55 PM 26.2767 -78.8133 327° Northwest 451 519 45,000  Level Miami Center
Mon 03:14:57 PM 26.4042 -78.9036 328° Northwest 451 519 45,000  Level Miami Center
Mon 03:15:59 PM 26.5125 -78.9739 330° Northwest 452 520 45,000  Level Miami Center
Mon 03:17:01 PM 26.6208 -79.0417 331° Northwest 451 519 45,000 244 Level Miami Center
Mon 03:18:02 PM 26.7286 -79.1119 330° Northwest 450 518 45,500 488 Climbing Miami Center
Mon 03:19:04 PM 26.8389 -79.1808 331° Northwest 452 520 46,000 484 Climbing Miami Center
Mon 03:20:06 PM 26.9494 -79.2528 330° Northwest 460 529 46,500 484 Climbing Miami Center
Mon 03:21:08 PM 27.0828 -79.3381 330° Northwest 462 532 47,000 242 Climbing Miami Center
Mon 03:22:10 PM 27.2014 -79.4147 330° Northwest 466 536 47,000  Level Miami Center
Mon 03:23:12 PM 27.3242 -79.4833 334° Northwest 470 541 47,000  Level Miami Center
Mon 03:24:14 PM 27.4483 -79.5442 337° Northwest 465 535 47,000  Level Miami Center
Mon 03:25:16 PM 27.5683 -79.5881 342° North 466 536 47,000  Level Miami Center
Mon 03:26:17 PM 27.6978 -79.6378 341° North 468 539 47,000  Level Miami Center
Mon 03:27:19 PM 27.8267 -79.6858 342° North 468 539 47,000  Level Miami Center
Mon 03:28:21 PM 27.9517 -79.7294 343° North 469 540 47,000  Level Miami Center
Mon 03:29:23 PM 28.0772 -79.7678 345° North 469 540 47,000  Level Miami Center
Mon 03:30:25 PM 28.2031 -79.8056 345° North 470 541 47,000  Level Miami Center
Mon 03:31:27 PM 28.3292 -79.8436 345° North 470 541 47,000  Level Miami Center
Mon 03:32:29 PM 28.4836 -79.8386 North 470 541 47,000  Level Miami Center
Mon 03:33:31 PM 28.6150 -79.8267 North 472 543 47,000  Level Miami Center
Mon 03:34:32 PM 28.7456 -79.8292 359° North 472 543 47,000  Level Miami Center
Mon 03:35:34 PM 28.8711 -79.8653 346° North 470 541 47,000  Level Miami Center
Mon 03:36:36 PM 28.9972 -79.9025 346° North 469 540 47,000 -242 Level Miami Center
Mon 03:37:38 PM 29.1222 -79.9386 346° North 468 539 46,500 -871 Descending Miami Center
Mon 03:38:40 PM 29.2678 -79.9961 341° North 462 532 45,200 -1,258 Descending Miami Center
Mon 03:39:42 PM 29.3822 -80.0439 340° North 444 511 43,900 -1,210 Descending Miami Center
Mon 03:40:44 PM 29.4997 -80.0900 341° North 455 524 42,700 -1,210 Descending Miami Center
Mon 03:41:46 PM 29.6217 -80.1408 340° North 464 534 41,400 -1,435 Descending Miami Center
Mon 03:42:16 PM 29.7011 -80.1717 341° North 457 526 40,500 -1,533 Descending Jacksonville Center
Mon 03:43:16 PM 29.8275 -80.2281 339° North 463 533 39,100 -1,950 Descending Jacksonville Center
Mon 03:44:16 PM 29.9558 -80.2797 341° North 470 541 36,600 -2,750 Descending Jacksonville Center
Mon 03:45:16 PM 30.0800 -80.3314 340° North 478 550 33,600 -2,850 Descending Jacksonville Center
Mon 03:46:16 PM 30.2064 -80.3833 340° North 478 550 30,900 -2,700 Descending Jacksonville Center
Mon 03:47:16 PM 30.3306 -80.4356 340° North 478 550 28,200 -2,700 Descending Jacksonville Center
Mon 03:48:16 PM 30.4547 -80.4853 341° North 472 543 25,500 -2,350 Descending Jacksonville Center
Mon 03:49:16 PM 30.5747 -80.5378 339° North 462 532 23,500 -1,900 Descending Jacksonville Center
Mon 03:50:16 PM 30.6903 -80.5831 341° North 445 512 21,700 -1,800 Descending Jacksonville Center
Mon 03:51:16 PM 30.7956 -80.6267 340° North 421 484 19,900 -1,800 Descending Jacksonville Center
Mon 03:52:16 PM 30.9028 -80.6747 339° North 402 463 18,100 -1,700 Descending Jacksonville Center
Mon 03:53:16 PM 31.0058 -80.7183 340° North 396 456 16,500 -1,650 Descending Jacksonville Center
Mon 03:54:16 PM 31.0961 -80.7528 342° North 391 450 14,800 -1,600 Descending Jacksonville Center
Mon 03:55:16 PM 31.1950 -80.7967 339° North 391 450 13,300 -1,500 Descending Jacksonville Center
Mon 03:56:16 PM 31.2897 -80.8358 341° North 380 437 11,800 -1,150 Descending Jacksonville Center
Mon 03:57:16 PM 31.3883 -80.8725 342° North 374 430 11,000 -400 Descending Jacksonville Center
Mon 03:58:16 PM 31.4914 -80.9192 339° North 369 425 11,000  Level Jacksonville Center
Mon 03:59:16 PM 31.5775 -80.9539 341° North 362 417 11,000 -400 Level Jacksonville Center
Mon 04:00:16 PM 31.6494 -81.0158 324° Northwest 332 382 10,200 -1,250 Descending Jacksonville Center
Mon 04:01:16 PM 31.7169 -81.0583 332° Northwest 284 327 8,500 -1,800 Descending Jacksonville Center
Mon 04:02:16 PM 31.7983 -81.0642 357° North 262 302 6,600 -1,450 Descending Jacksonville Center
Mon 04:03:16 PM 31.8675 -81.0678 357° North 243 280 5,600 -1,050 Descending Jacksonville Center
Mon 04:04:16 PM 31.9239 -81.0689 359° North 225 259 4,500 -1,100 Descending Jacksonville Center
Mon 04:05:16 PM 31.9761 -81.0728 356° North 206 237 3,400 -1,100 Descending Jacksonville Center
Mon 04:06:16 PM 32.0367 -81.0839 351° North 195 224 2,300 -700 Descending Jacksonville Center
Mon 04:07:16 PM 32.0869 -81.0975 347° North 190 219 2,000 -300 Descending Jacksonville Center
Mon 04:09:00 PM 32.1167 -81.2000 270° West  Level FlightAware
Mon 04:16:00 PM 32.1276 -81.2021 270° West  Level Estimated
Mon 04:17:00 PM 32.1276 -81.2021 270° West  Level Estimated
Mon 04:18:00 PM 32.1276 -81.2021 270° West  Level Estimated

Login

Don't have an account? Register now (free) for customized features, flight alerts, and more!